createdAt,value
2016-12-26T00:01:09.886Z,9.49
2016-12-26T00:02:20.671Z,9.51
2016-12-26T00:03:31.428Z,9.47
2016-12-26T00:04:42.186Z,9.49
2016-12-26T00:05:52.924Z,9.54
2016-12-26T00:07:03.673Z,9.54
2016-12-26T00:08:14.415Z,9.51
2016-12-26T00:09:25.444Z,9.49
2016-12-26T00:10:36.183Z,9.48
2016-12-26T00:11:46.910Z,9.51
2016-12-26T00:12:57.604Z,9.56
2016-12-26T00:14:08.321Z,9.51
2016-12-26T00:15:19.065Z,9.48
2016-12-26T00:16:29.792Z,9.47
2016-12-26T00:17:40.509Z,9.49
2016-12-26T00:18:51.235Z,9.49
2016-12-26T00:20:01.956Z,9.47
2016-12-26T00:21:12.694Z,9.44
2016-12-26T00:22:23.742Z,9.47
2016-12-26T00:23:34.489Z,9.56
2016-12-26T00:24:45.210Z,9.52
2016-12-26T00:25:55.955Z,9.48
2016-12-26T00:27:06.677Z,9.47
2016-12-26T00:28:17.398Z,9.51
2016-12-26T00:29:28.148Z,9.49
2016-12-26T00:30:38.877Z,9.51
2016-12-26T00:31:49.614Z,9.51
2016-12-26T00:33:00.311Z,9.51
2016-12-26T00:34:11.052Z,9.54
2016-12-26T00:35:21.795Z,9.48
2016-12-26T00:36:32.530Z,9.49
2016-12-26T00:37:43.266Z,9.51
2016-12-26T00:38:53.995Z,9.55
2016-12-26T00:40:04.729Z,9.56
2016-12-26T00:41:15.479Z,9.56
2016-12-26T00:42:26.205Z,9.56
2016-12-26T00:43:36.956Z,9.54
2016-12-26T00:44:47.690Z,9.59
2016-12-26T00:45:58.434Z,9.66
2016-12-26T00:47:09.164Z,9.55
2016-12-26T00:48:20.230Z,9.58
2016-12-26T00:49:30.951Z,9.64
2016-12-26T00:50:41.697Z,9.59
2016-12-26T00:51:52.415Z,9.59
2016-12-26T00:53:03.164Z,9.62
2016-12-26T00:54:13.907Z,9.59
2016-12-26T00:55:24.652Z,9.64
2016-12-26T00:56:35.384Z,9.64
2016-12-26T00:57:46.078Z,9.59
2016-12-26T00:58:56.798Z,9.64
2016-12-26T01:00:07.544Z,9.58
2016-12-26T01:01:18.286Z,9.66
2016-12-26T01:02:28.986Z,9.58
2016-12-26T01:03:39.707Z,9.63
2016-12-26T01:04:50.428Z,9.67
2016-12-26T01:06:01.167Z,9.67
2016-12-26T01:07:11.872Z,9.66
2016-12-26T01:08:22.587Z,9.7
2016-12-26T01:09:33.333Z,9.66
2016-12-26T01:10:44.084Z,9.59
2016-12-26T01:11:54.808Z,9.62
2016-12-26T01:13:05.543Z,9.59
2016-12-26T01:14:16.563Z,9.67
2016-12-26T01:15:27.309Z,9.74
2016-12-26T01:16:38.058Z,9.72
2016-12-26T01:17:48.787Z,9.74
2016-12-26T01:18:59.527Z,9.62
2016-12-26T01:20:10.282Z,9.59
2016-12-26T01:21:21.017Z,9.62
2016-12-26T01:22:31.764Z,9.59
2016-12-26T01:23:42.509Z,9.66
2016-12-26T01:24:53.227Z,9.73
2016-12-26T01:26:03.961Z,9.72
2016-12-26T01:27:14.694Z,9.64
2016-12-26T01:28:25.441Z,9.62
2016-12-26T01:29:36.194Z,9.74
2016-12-26T01:30:46.940Z,9.63
2016-12-26T01:31:57.637Z,9.63
2016-12-26T01:33:08.378Z,9.76
2016-12-26T01:34:19.107Z,9.69
2016-12-26T01:35:29.833Z,9.67
2016-12-26T01:36:40.598Z,9.64
2016-12-26T01:37:51.320Z,9.63
2016-12-26T01:39:02.042Z,9.73
2016-12-26T01:40:12.778Z,9.72
2016-12-26T01:41:23.509Z,9.73
2016-12-26T01:42:34.268Z,9.66
2016-12-26T01:43:45.316Z,9.72
2016-12-26T01:44:56.059Z,9.62
2016-12-26T01:46:06.818Z,9.56
2016-12-26T01:47:17.588Z,9.63
2016-12-26T01:48:28.334Z,9.63
2016-12-26T01:49:39.051Z,9.64
2016-12-26T01:50:49.788Z,9.73
2016-12-26T01:52:00.518Z,9.59
2016-12-26T01:53:11.243Z,9.69
2016-12-26T01:54:21.959Z,9.69
2016-12-26T01:55:32.730Z,9.76
2016-12-26T01:56:43.480Z,9.72
2016-12-26T01:57:54.222Z,9.74
2016-12-26T01:59:04.921Z,9.69
2016-12-26T02:00:15.642Z,9.74
2016-12-26T02:01:26.378Z,9.7
2016-12-26T02:02:37.123Z,9.73
2016-12-26T02:03:47.855Z,9.7
2016-12-26T02:04:58.594Z,9.69
2016-12-26T02:06:09.336Z,9.73
2016-12-26T02:07:20.084Z,9.73
2016-12-26T02:08:30.811Z,9.76
2016-12-26T02:09:41.536Z,9.72
2016-12-26T02:10:52.574Z,9.69
2016-12-26T02:12:03.303Z,9.72
2016-12-26T02:13:14.045Z,9.74
2016-12-26T02:14:24.794Z,9.76
2016-12-26T02:15:35.515Z,9.74
2016-12-26T02:16:46.239Z,9.76
2016-12-26T02:17:56.975Z,9.72
2016-12-26T02:19:07.732Z,9.76
2016-12-26T02:20:18.489Z,9.77
2016-12-26T02:21:29.220Z,9.72
2016-12-26T02:22:39.955Z,9.73
2016-12-26T02:23:50.689Z,9.7
2016-12-26T02:25:01.408Z,9.73
2016-12-26T02:26:12.155Z,9.76
2016-12-26T02:27:22.923Z,9.72
2016-12-26T02:28:33.619Z,9.76
2016-12-26T02:29:44.368Z,9.74
2016-12-26T02:30:55.085Z,9.77
2016-12-26T02:32:05.808Z,9.74
2016-12-26T02:33:16.519Z,9.72
2016-12-26T02:34:27.272Z,9.74
2016-12-26T02:35:37.989Z,9.74
2016-12-26T02:36:48.734Z,9.74
2016-12-26T02:37:59.434Z,9.73
2016-12-26T02:39:10.135Z,9.72
2016-12-26T02:40:20.851Z,9.74
2016-12-26T02:41:31.590Z,9.81
2016-12-26T02:42:42.364Z,9.77
2016-12-26T02:43:53.089Z,9.8
2016-12-26T02:45:03.864Z,9.74
2016-12-26T02:46:14.627Z,9.81
2016-12-26T02:47:25.357Z,9.82
2016-12-26T02:48:36.097Z,9.74
2016-12-26T02:49:46.818Z,9.77
2016-12-26T02:50:57.531Z,9.8
2016-12-26T02:52:08.265Z,9.76
2016-12-26T02:53:19.298Z,9.81
2016-12-26T02:54:30.027Z,9.81
2016-12-26T02:55:40.765Z,9.85
2016-12-26T02:56:51.470Z,9.84
2016-12-26T02:58:02.510Z,9.92
2016-12-26T02:59:13.256Z,9.88
2016-12-26T03:00:24.031Z,9.91
2016-12-26T03:01:34.769Z,9.84
2016-12-26T03:02:45.502Z,9.94
2016-12-26T03:03:56.248Z,9.95
2016-12-26T03:05:06.968Z,9.9
2016-12-26T03:06:17.689Z,9.91
2016-12-26T03:07:28.408Z,9.91
2016-12-26T03:08:39.149Z,9.92
2016-12-26T03:09:49.865Z,9.92
2016-12-26T03:11:00.575Z,9.95
2016-12-26T03:12:11.318Z,10
2016-12-26T03:13:22.058Z,9.99
2016-12-26T03:14:32.786Z,10.03
2016-12-26T03:15:43.521Z,10
2016-12-26T03:16:54.254Z,10.03
2016-12-26T03:18:04.979Z,9.97
2016-12-26T03:19:15.699Z,9.99
2016-12-26T03:20:26.733Z,9.95
2016-12-26T03:21:37.454Z,9.97
2016-12-26T03:22:48.200Z,10.05
2016-12-26T03:23:58.955Z,10.02
2016-12-26T03:25:09.691Z,10.02
2016-12-26T03:26:20.392Z,10.03
2016-12-26T03:27:31.106Z,10.02
2016-12-26T03:28:41.840Z,10.12
2016-12-26T03:29:52.576Z,10.06
2016-12-26T03:31:03.305Z,10.06
2016-12-26T03:32:14.023Z,10.09
2016-12-26T03:33:24.764Z,10.12
2016-12-26T03:34:35.516Z,10.18
2016-12-26T03:35:46.217Z,10.12
2016-12-26T03:36:56.960Z,10.07
2016-12-26T03:38:07.702Z,10.09
2016-12-26T03:39:18.440Z,10.17
2016-12-26T03:40:29.187Z,10.09
2016-12-26T03:41:39.919Z,10.13
2016-12-26T03:42:50.666Z,10.18
2016-12-26T03:44:01.403Z,10.15
2016-12-26T03:45:12.157Z,10.12
2016-12-26T03:46:22.924Z,10.12
2016-12-26T03:47:33.625Z,10.13
2016-12-26T03:48:44.366Z,10.15
2016-12-26T03:49:55.108Z,10.12
2016-12-26T03:51:05.859Z,10.09
2016-12-26T03:52:16.572Z,10.24
2016-12-26T03:53:27.318Z,10.18
2016-12-26T03:54:38.076Z,10.12
2016-12-26T03:55:48.797Z,10.09
2016-12-26T03:56:59.514Z,10.1
2016-12-26T03:58:10.231Z,10.24
2016-12-26T03:59:20.948Z,10.18
2016-12-26T04:00:31.670Z,10.12
2016-12-26T04:01:42.718Z,10.18
2016-12-26T04:02:53.439Z,10.18
2016-12-26T04:04:04.189Z,10.27
2016-12-26T04:05:14.928Z,10.18
2016-12-26T04:06:25.658Z,10.21
2016-12-26T04:07:36.407Z,10.27
2016-12-26T04:08:47.129Z,10.31
2016-12-26T04:09:57.870Z,10.3
2016-12-26T04:11:08.611Z,10.23
2016-12-26T04:12:19.318Z,10.23
2016-12-26T04:13:30.041Z,10.25
2016-12-26T04:14:40.755Z,10.25
2016-12-26T04:15:51.477Z,10.18
2016-12-26T04:17:02.526Z,10.21
2016-12-26T04:18:13.246Z,10.28
2016-12-26T04:19:23.968Z,10.24
2016-12-26T04:20:34.689Z,10.24
2016-12-26T04:21:45.409Z,10.24
2016-12-26T04:22:56.130Z,10.31
2016-12-26T04:24:07.165Z,10.27
2016-12-26T04:25:17.923Z,10.21
2016-12-26T04:26:28.657Z,10.27
2016-12-26T04:27:39.413Z,10.24
2016-12-26T04:28:50.136Z,10.25
2016-12-26T04:30:00.870Z,10.27
2016-12-26T04:31:11.602Z,10.25
2016-12-26T04:32:22.313Z,10.28
2016-12-26T04:33:33.069Z,10.25
2016-12-26T04:34:43.843Z,10.28
2016-12-26T04:35:54.879Z,10.21
2016-12-26T04:37:05.608Z,10.25
2016-12-26T04:38:16.343Z,10.24
2016-12-26T04:39:27.100Z,10.27
2016-12-26T04:40:37.835Z,10.28
2016-12-26T04:41:48.593Z,10.28
2016-12-26T04:42:59.286Z,10.23
2016-12-26T04:44:09.998Z,10.3
2016-12-26T04:45:20.708Z,10.28
2016-12-26T04:46:31.465Z,10.3
2016-12-26T04:47:42.187Z,10.3
2016-12-26T04:48:52.940Z,10.25
2016-12-26T04:50:03.686Z,10.25
2016-12-26T04:51:14.400Z,10.28
2016-12-26T04:52:25.152Z,10.27
2016-12-26T04:53:35.880Z,10.31
2016-12-26T04:54:46.602Z,10.31
2016-12-26T04:55:57.633Z,10.27
2016-12-26T04:57:08.371Z,10.31
2016-12-26T04:58:19.104Z,10.31
2016-12-26T04:59:29.822Z,10.28
2016-12-26T05:00:40.547Z,10.27
2016-12-26T05:01:51.267Z,10.25
2016-12-26T05:03:02.010Z,10.24
2016-12-26T05:04:12.781Z,10.28
2016-12-26T05:05:23.531Z,10.3
2016-12-26T05:06:34.306Z,10.28
2016-12-26T05:07:45.044Z,10.21
2016-12-26T05:08:55.779Z,10.27
2016-12-26T05:10:06.498Z,10.28
2016-12-26T05:11:17.212Z,10.39
2016-12-26T05:12:27.916Z,10.25
2016-12-26T05:13:38.661Z,10.31
2016-12-26T05:14:49.403Z,10.36
2016-12-26T05:16:00.103Z,10.3
2016-12-26T05:17:10.837Z,10.3
2016-12-26T05:18:21.570Z,10.27
2016-12-26T05:19:32.289Z,10.33
2016-12-26T05:20:43.027Z,10.43
2016-12-26T05:21:53.737Z,10.28
2016-12-26T05:23:04.468Z,10.31
2016-12-26T05:24:15.201Z,10.31
2016-12-26T05:25:25.944Z,10.31
2016-12-26T05:26:36.714Z,10.31
2016-12-26T05:27:47.411Z,10.3
2016-12-26T05:28:58.156Z,10.36
2016-12-26T05:30:08.902Z,10.33
2016-12-26T05:31:19.640Z,10.36
2016-12-26T05:32:30.386Z,10.28
2016-12-26T05:33:41.118Z,10.3
2016-12-26T05:34:51.840Z,10.36
2016-12-26T05:36:02.575Z,10.28
2016-12-26T05:37:13.299Z,10.33
2016-12-26T05:38:24.020Z,10.36
2016-12-26T05:39:34.764Z,10.3
2016-12-26T05:40:45.487Z,10.31
2016-12-26T05:41:56.241Z,10.28
2016-12-26T05:43:07.001Z,10.31
2016-12-26T05:44:17.726Z,10.34
2016-12-26T05:45:28.480Z,10.34
2016-12-26T05:46:39.200Z,10.34
2016-12-26T05:47:49.939Z,10.31
2016-12-26T05:49:00.664Z,10.36
2016-12-26T05:50:11.438Z,10.24
2016-12-26T05:51:22.148Z,10.3
2016-12-26T05:52:32.900Z,10.28
2016-12-26T05:53:43.651Z,10.33
2016-12-26T05:54:54.412Z,10.36
2016-12-26T05:56:05.183Z,10.31
2016-12-26T05:57:15.915Z,10.33
2016-12-26T05:58:26.657Z,10.3
2016-12-26T05:59:37.379Z,10.28
2016-12-26T06:00:48.096Z,10.28
2016-12-26T06:01:58.799Z,10.33
2016-12-26T06:03:09.533Z,10.25
2016-12-26T06:04:20.279Z,10.31
2016-12-26T06:05:31.025Z,10.31
2016-12-26T06:06:41.754Z,10.24
2016-12-26T06:07:52.471Z,10.28
2016-12-26T06:09:03.189Z,10.23
2016-12-26T06:10:13.948Z,10.25
2016-12-26T06:11:24.688Z,10.27
2016-12-26T06:12:35.435Z,10.24
2016-12-26T06:13:46.176Z,10.28
2016-12-26T06:14:56.919Z,10.25
2016-12-26T06:16:07.949Z,10.27
2016-12-26T06:17:18.661Z,10.24
2016-12-26T06:18:29.394Z,10.13
2016-12-26T06:19:40.131Z,10.21
2016-12-26T06:20:50.876Z,10.21
2016-12-26T06:22:01.594Z,10.1
2016-12-26T06:23:12.319Z,10.1
2016-12-26T06:24:23.076Z,10.25
2016-12-26T06:25:33.818Z,10.1
2016-12-26T06:26:44.516Z,10.12
2016-12-26T06:27:55.303Z,10.1
2016-12-26T06:29:06.024Z,10.17
2016-12-26T06:30:16.779Z,10.17
2016-12-26T06:31:27.524Z,10.23
2016-12-26T06:32:38.263Z,10.13
2016-12-26T06:33:48.980Z,10.06
2016-12-26T06:34:59.729Z,10.12
2016-12-26T06:36:10.474Z,10.09
2016-12-26T06:37:21.203Z,10.02
2016-12-26T06:38:31.939Z,10.02
2016-12-26T06:39:42.649Z,9.99
2016-12-26T06:40:53.381Z,10
2016-12-26T06:42:04.130Z,9.91
2016-12-26T06:43:14.872Z,9.97
2016-12-26T06:44:25.598Z,9.91
2016-12-26T06:45:36.367Z,9.91
2016-12-26T06:46:47.093Z,9.88
2016-12-26T06:47:57.789Z,9.8
2016-12-26T06:49:08.515Z,9.82
2016-12-26T06:50:19.556Z,9.76
2016-12-26T06:51:30.281Z,9.77
2016-12-26T06:52:41.015Z,9.81
2016-12-26T06:53:51.761Z,9.77
2016-12-26T06:55:02.508Z,9.7
2016-12-26T06:56:13.261Z,9.72
2016-12-26T06:57:23.982Z,9.7
2016-12-26T06:58:34.703Z,9.69
2016-12-26T06:59:45.443Z,9.7
2016-12-26T07:00:56.195Z,9.67
2016-12-26T07:02:06.958Z,9.69
2016-12-26T07:03:17.687Z,9.62
2016-12-26T07:04:28.440Z,9.58
2016-12-26T07:05:39.182Z,9.55
2016-12-26T07:06:49.901Z,9.59
2016-12-26T07:08:00.649Z,9.66
2016-12-26T07:09:11.387Z,9.58
2016-12-26T07:10:22.137Z,9.54
2016-12-26T07:11:32.880Z,9.55
2016-12-26T07:12:43.601Z,9.48
2016-12-26T07:13:54.326Z,9.51
2016-12-26T07:15:05.092Z,9.48
2016-12-26T07:16:15.793Z,9.51
2016-12-26T07:17:26.518Z,9.48
2016-12-26T07:18:37.253Z,9.51
2016-12-26T07:19:48.277Z,9.47
2016-12-26T07:20:58.997Z,9.48
2016-12-26T07:22:10.015Z,9.45
2016-12-26T07:23:20.765Z,9.44
2016-12-26T07:24:31.510Z,9.47
2016-12-26T07:25:42.228Z,9.51
2016-12-26T07:26:52.952Z,9.51
2016-12-26T07:28:03.673Z,9.51
2016-12-26T07:29:14.421Z,9.54
2016-12-26T07:30:25.190Z,9.51
2016-12-26T07:31:35.919Z,9.45
2016-12-26T07:32:46.628Z,9.42
2016-12-26T07:33:57.337Z,9.48
2016-12-26T07:35:08.080Z,9.49
2016-12-26T07:36:19.101Z,9.42
2016-12-26T07:37:29.824Z,9.52
2016-12-26T07:38:40.868Z,9.37
2016-12-26T07:39:51.591Z,9.48
2016-12-26T07:41:02.335Z,9.44
2016-12-26T07:42:13.346Z,9.42
2016-12-26T07:43:24.071Z,9.44
2016-12-26T07:44:34.817Z,9.4
2016-12-26T07:45:45.567Z,9.37
2016-12-26T07:46:56.290Z,9.48
2016-12-26T07:48:07.026Z,9.34
2016-12-26T07:49:17.748Z,9.36
2016-12-26T07:50:28.472Z,9.29
2016-12-26T07:51:39.199Z,9.34
2016-12-26T07:52:49.917Z,9.37
2016-12-26T07:54:00.659Z,9.31
2016-12-26T07:55:11.432Z,9.36
2016-12-26T07:56:22.185Z,9.34
2016-12-26T07:57:32.905Z,9.33
2016-12-26T07:58:43.619Z,9.39
2016-12-26T07:59:54.348Z,9.26
2016-12-26T08:01:05.111Z,9.39
2016-12-26T08:02:15.853Z,9.34
2016-12-26T08:03:26.883Z,9.36
2016-12-26T08:04:37.623Z,9.36
2016-12-26T08:05:48.349Z,9.36
2016-12-26T08:06:59.073Z,9.31
2016-12-26T08:08:09.788Z,9.37
2016-12-26T08:09:20.533Z,9.4
2016-12-26T08:10:31.263Z,9.37
2016-12-26T08:11:41.971Z,9.36
2016-12-26T08:12:52.723Z,9.37
2016-12-26T08:14:03.441Z,9.31
2016-12-26T08:15:14.195Z,9.34
2016-12-26T08:16:24.930Z,9.27
2016-12-26T08:17:35.654Z,9.42
2016-12-26T08:18:46.378Z,9.39
2016-12-26T08:19:57.092Z,9.33
2016-12-26T08:21:07.825Z,9.31
2016-12-26T08:22:18.546Z,9.4
2016-12-26T08:23:29.263Z,9.34
2016-12-26T08:24:40.003Z,9.45
2016-12-26T08:25:51.050Z,9.42
2016-12-26T08:27:01.797Z,9.49
2016-12-26T08:28:12.524Z,9.51
2016-12-26T08:29:23.264Z,9.49
2016-12-26T08:30:34.011Z,9.48
2016-12-26T08:31:44.753Z,9.51
2016-12-26T08:32:55.498Z,9.49
2016-12-26T08:34:06.277Z,9.45
2016-12-26T08:35:16.994Z,9.48
2016-12-26T08:36:27.737Z,9.47
2016-12-26T08:37:38.766Z,9.48
2016-12-26T08:38:49.820Z,9.48
2016-12-26T08:40:00.561Z,9.52
2016-12-26T08:41:11.303Z,9.54
2016-12-26T08:42:22.045Z,9.58
2016-12-26T08:43:32.788Z,9.45
2016-12-26T08:44:43.519Z,9.52
2016-12-26T08:45:54.258Z,9.59
2016-12-26T08:47:05.313Z,9.55
2016-12-26T08:48:16.083Z,9.63
2016-12-26T08:49:26.830Z,9.59
2016-12-26T08:50:37.564Z,9.59
2016-12-26T08:51:48.293Z,9.59
2016-12-26T08:52:59.042Z,9.67
2016-12-26T08:54:09.788Z,9.64
2016-12-26T08:55:20.531Z,9.66
2016-12-26T08:56:31.251Z,9.72
2016-12-26T08:57:41.977Z,9.69
2016-12-26T08:58:52.721Z,9.7
2016-12-26T09:00:03.457Z,9.74
2016-12-26T09:01:14.181Z,9.74
2016-12-26T09:02:24.935Z,9.72
2016-12-26T09:03:35.669Z,9.77
2016-12-26T09:04:46.423Z,9.76
2016-12-26T09:05:57.145Z,9.74
2016-12-26T09:07:07.895Z,9.81
2016-12-26T09:08:18.634Z,9.76
2016-12-26T09:09:29.402Z,9.84
2016-12-26T09:10:40.149Z,9.87
2016-12-26T09:11:50.917Z,9.84
2016-12-26T09:13:01.666Z,9.87
2016-12-26T09:14:12.391Z,9.85
2016-12-26T09:15:23.133Z,9.92
2016-12-26T09:16:33.836Z,9.92
2016-12-26T09:17:44.582Z,9.94
2016-12-26T09:18:55.317Z,9.97
2016-12-26T09:20:06.046Z,10.02
2016-12-26T09:21:16.772Z,9.99
2016-12-26T09:22:27.505Z,9.97
2016-12-26T09:23:38.239Z,10
2016-12-26T09:24:48.983Z,10.12
2016-12-26T09:25:59.701Z,10.09
2016-12-26T09:27:10.430Z,10.17
2016-12-26T09:28:21.474Z,10.17
2016-12-26T09:29:32.214Z,10.27
2016-12-26T09:30:42.939Z,10.3
2016-12-26T09:31:53.648Z,10.27
2016-12-26T09:33:04.398Z,10.31
2016-12-26T09:34:15.142Z,10.39
2016-12-26T09:35:26.190Z,10.39
2016-12-26T09:36:36.890Z,10.49
2016-12-26T09:37:47.636Z,10.49
2016-12-26T09:38:58.374Z,10.48
2016-12-26T09:40:09.109Z,10.53
2016-12-26T09:41:19.841Z,10.57
2016-12-26T09:42:30.573Z,10.57
2016-12-26T09:43:41.308Z,10.53
2016-12-26T09:44:52.054Z,10.68
2016-12-26T09:46:02.808Z,10.64
2016-12-26T09:47:13.562Z,10.68
2016-12-26T09:48:24.278Z,10.71
2016-12-26T09:49:35.013Z,10.69
2016-12-26T09:50:45.746Z,10.72
2016-12-26T09:51:56.467Z,10.64
2016-12-26T09:53:07.230Z,10.76
2016-12-26T09:54:18.258Z,10.68
2016-12-26T09:55:29.005Z,10.68
2016-12-26T09:56:39.726Z,10.67
2016-12-26T09:57:50.497Z,10.67
2016-12-26T09:59:01.268Z,10.62
2016-12-26T10:00:12.306Z,10.65
2016-12-26T10:01:23.052Z,10.64
2016-12-26T10:02:33.794Z,10.61
2016-12-26T10:03:44.566Z,10.65
2016-12-26T10:04:55.298Z,10.68
2016-12-26T10:06:05.991Z,10.64
2016-12-26T10:07:16.767Z,10.64
2016-12-26T10:08:27.527Z,10.69
2016-12-26T10:09:38.270Z,10.65
2016-12-26T10:10:49.023Z,10.65
2016-12-26T10:11:59.750Z,10.72
2016-12-26T10:13:10.470Z,10.79
2016-12-26T10:14:21.188Z,10.69
2016-12-26T10:15:31.936Z,10.64
2016-12-26T10:16:42.656Z,10.64
2016-12-26T10:17:53.352Z,10.76
2016-12-26T10:19:04.091Z,10.69
2016-12-26T10:20:14.822Z,10.71
2016-12-26T10:21:25.587Z,10.69
2016-12-26T10:22:36.335Z,10.72
2016-12-26T10:23:47.051Z,10.82
2016-12-26T10:24:57.771Z,10.72
2016-12-26T10:26:08.497Z,10.82
2016-12-26T10:27:19.213Z,10.72
2016-12-26T10:28:29.956Z,10.76
2016-12-26T10:29:40.688Z,10.79
2016-12-26T10:30:51.434Z,10.75
2016-12-26T10:32:02.175Z,10.82
2016-12-26T10:33:12.874Z,10.72
2016-12-26T10:34:23.662Z,10.75
2016-12-26T10:35:34.370Z,10.77
2016-12-26T10:36:45.066Z,10.76
2016-12-26T10:37:55.800Z,10.72
2016-12-26T10:39:06.582Z,10.79
2016-12-26T10:40:17.627Z,10.8
2016-12-26T10:41:28.365Z,10.8
2016-12-26T10:42:39.137Z,10.83
2016-12-26T10:43:49.866Z,10.84
2016-12-26T10:45:00.600Z,10.9
2016-12-26T10:46:11.354Z,10.89
2016-12-26T10:47:22.103Z,10.8
2016-12-26T10:48:32.837Z,10.82
2016-12-26T10:49:43.584Z,10.92
2016-12-26T10:50:54.342Z,10.87
2016-12-26T10:52:05.079Z,10.95
2016-12-26T10:53:15.808Z,10.87
2016-12-26T10:54:26.554Z,10.9
2016-12-26T10:55:37.290Z,10.92
2016-12-26T10:56:48.035Z,10.95
2016-12-26T10:57:58.745Z,10.9
2016-12-26T10:59:09.455Z,10.87
2016-12-26T11:00:20.506Z,10.98
2016-12-26T11:01:31.231Z,11
2016-12-26T11:02:41.969Z,11.04
2016-12-26T11:03:52.712Z,11.1
2016-12-26T11:05:03.443Z,11
2016-12-26T11:06:14.181Z,10.98
2016-12-26T11:07:24.912Z,11.04
2016-12-26T11:08:35.649Z,10.94
2016-12-26T11:09:46.395Z,10.86
2016-12-26T11:10:57.137Z,10.95
2016-12-26T11:12:08.169Z,10.87
2016-12-26T11:13:18.907Z,11
2016-12-26T11:14:29.654Z,11.01
2016-12-26T11:15:40.371Z,10.97
2016-12-26T11:16:51.101Z,10.94
2016-12-26T11:18:01.813Z,10.95
2016-12-26T11:19:12.559Z,10.98
2016-12-26T11:20:23.313Z,10.9
2016-12-26T11:21:34.054Z,10.87
2016-12-26T11:22:44.780Z,10.87
2016-12-26T11:23:55.519Z,10.83
2016-12-26T11:25:06.225Z,10.8
2016-12-26T11:26:16.960Z,10.9
2016-12-26T11:27:27.709Z,10.89
2016-12-26T11:28:38.481Z,10.86
2016-12-26T11:29:49.226Z,10.8
2016-12-26T11:30:59.956Z,10.84
2016-12-26T11:32:10.718Z,10.79
2016-12-26T11:33:21.419Z,10.75
2016-12-26T11:34:32.116Z,10.79
2016-12-26T11:35:42.840Z,10.8
2016-12-26T11:36:53.561Z,10.77
2016-12-26T11:38:04.283Z,10.75
2016-12-26T11:39:15.026Z,10.79
2016-12-26T11:40:25.798Z,10.65
2016-12-26T11:41:36.521Z,10.72
2016-12-26T11:42:47.242Z,10.75
2016-12-26T11:43:57.978Z,10.67
2016-12-26T11:45:09.029Z,10.72
2016-12-26T11:46:19.771Z,10.59
2016-12-26T11:47:30.525Z,10.57
2016-12-26T11:48:41.242Z,10.57
2016-12-26T11:49:51.956Z,10.42
2016-12-26T11:51:02.713Z,10.41
2016-12-26T11:52:13.451Z,10.33
2016-12-26T11:53:24.197Z,10.25
2016-12-26T11:54:34.914Z,10.09
2016-12-26T11:55:45.663Z,10.09
2016-12-26T11:56:56.406Z,10.03
2016-12-26T11:58:07.128Z,9.88
2016-12-26T11:59:17.873Z,9.84
2016-12-26T12:00:28.598Z,9.72
2016-12-26T12:01:39.316Z,9.73
2016-12-26T12:02:50.044Z,9.69
2016-12-26T12:04:00.784Z,9.62
2016-12-26T12:05:11.507Z,9.56
2016-12-26T12:06:22.262Z,9.51
2016-12-26T12:07:32.996Z,9.47
2016-12-26T12:08:43.725Z,9.47
2016-12-26T12:09:54.440Z,9.42
2016-12-26T12:11:05.462Z,9.36
2016-12-26T12:12:16.208Z,9.34
2016-12-26T12:13:26.953Z,9.29
2016-12-26T12:14:37.679Z,9.24
2016-12-26T12:15:48.392Z,9.16
2016-12-26T12:16:59.142Z,9.18
2016-12-26T12:18:09.871Z,8.95
2016-12-26T12:19:20.590Z,8.97
2016-12-26T12:20:31.337Z,8.87
2016-12-26T12:21:42.072Z,8.84
2016-12-26T12:22:52.825Z,8.72
2016-12-26T12:24:03.551Z,8.68
2016-12-26T12:25:14.271Z,8.54
2016-12-26T12:26:25.006Z,8.54
2016-12-26T12:27:35.732Z,8.53
2016-12-26T12:28:46.458Z,8.35
2016-12-26T12:29:57.178Z,8.39
2016-12-26T12:31:07.919Z,8.26
2016-12-26T12:32:18.654Z,8.31
2016-12-26T12:33:29.390Z,8.26
2016-12-26T12:34:40.132Z,8.21
2016-12-26T12:35:50.877Z,8.23
2016-12-26T12:37:01.584Z,8.2
2016-12-26T12:38:12.324Z,8.11
2016-12-26T12:39:23.065Z,8.11
2016-12-26T12:40:33.792Z,8.09
2016-12-26T12:41:44.504Z,8.08
2016-12-26T12:42:55.276Z,8.06
2016-12-26T12:44:06.033Z,8.01
2016-12-26T12:45:17.068Z,8.01
2016-12-26T12:46:27.787Z,7.98
2016-12-26T12:47:38.513Z,7.96
2016-12-26T12:48:49.238Z,7.91
2016-12-26T12:49:59.954Z,7.85
2016-12-26T12:51:10.697Z,7.85
2016-12-26T12:52:21.421Z,7.9
2016-12-26T12:53:32.123Z,7.78
2016-12-26T12:54:42.838Z,7.81
2016-12-26T12:55:53.556Z,7.74
2016-12-26T12:57:04.286Z,7.75
2016-12-26T12:58:15.023Z,7.66
2016-12-26T12:59:25.755Z,7.69
2016-12-26T13:00:36.500Z,7.62
2016-12-26T13:01:47.202Z,7.56
2016-12-26T13:02:57.955Z,7.66
2016-12-26T13:04:08.678Z,7.56
2016-12-26T13:05:19.428Z,7.5
2016-12-26T13:06:30.155Z,7.51
2016-12-26T13:07:40.895Z,7.5
2016-12-26T13:08:51.620Z,7.56
2016-12-26T13:10:02.368Z,7.55
2016-12-26T13:11:13.107Z,7.43
2016-12-26T13:12:23.854Z,7.37
2016-12-26T13:13:34.559Z,7.41
2016-12-26T13:14:45.273Z,7.43
2016-12-26T13:15:56.015Z,7.37
2016-12-26T13:17:06.771Z,7.37
2016-12-26T13:18:17.513Z,7.33
2016-12-26T13:19:28.214Z,7.29
2016-12-26T13:20:38.947Z,7.4
2016-12-26T13:21:49.675Z,7.37
2016-12-26T13:23:00.419Z,7.37
2016-12-26T13:24:11.135Z,7.39
2016-12-26T13:25:21.881Z,7.31
2016-12-26T13:26:32.628Z,7.26
2016-12-26T13:27:43.373Z,7.31
2016-12-26T13:28:54.128Z,7.26
2016-12-26T13:30:04.847Z,7.33
2016-12-26T13:31:15.569Z,7.29
2016-12-26T13:32:26.313Z,7.26
2016-12-26T13:33:37.028Z,7.31
2016-12-26T13:34:47.807Z,7.25
2016-12-26T13:35:58.548Z,7.31
2016-12-26T13:37:09.279Z,7.32
2016-12-26T13:38:20.015Z,7.25
2016-12-26T13:39:30.716Z,7.25
2016-12-26T13:40:41.442Z,7.25
2016-12-26T13:41:52.183Z,7.29
2016-12-26T13:43:03.178Z,7.23
2016-12-26T13:44:13.885Z,7.25
2016-12-26T13:45:24.616Z,7.26
2016-12-26T13:46:35.321Z,7.23
2016-12-26T13:47:46.066Z,7.23
2016-12-26T13:48:56.810Z,7.19
2016-12-26T13:50:07.557Z,7.22
2016-12-26T13:51:18.293Z,7.22
2016-12-26T13:52:28.992Z,7.26
2016-12-26T13:53:39.738Z,7.19
2016-12-26T13:54:50.456Z,7.19
2016-12-26T13:56:01.190Z,7.26
2016-12-26T13:57:12.223Z,7.23
2016-12-26T13:58:22.934Z,7.28
2016-12-26T13:59:33.668Z,7.31
2016-12-26T14:00:44.390Z,7.29
2016-12-26T14:01:55.145Z,7.25
2016-12-26T14:03:05.889Z,7.22
2016-12-26T14:04:16.624Z,7.23
2016-12-26T14:05:27.382Z,7.23
2016-12-26T14:06:38.099Z,7.23
2016-12-26T14:07:48.815Z,7.26
2016-12-26T14:08:59.541Z,7.25
2016-12-26T14:10:10.282Z,7.26
2016-12-26T14:11:21.303Z,7.26
2016-12-26T14:12:32.053Z,7.22
2016-12-26T14:13:42.795Z,7.11
2016-12-26T14:14:53.520Z,7.21
2016-12-26T14:16:04.261Z,7.13
2016-12-26T14:17:14.978Z,7.22
2016-12-26T14:18:25.727Z,7.21
2016-12-26T14:19:36.474Z,7.19
2016-12-26T14:20:47.175Z,7.23
2016-12-26T14:21:57.913Z,7.18
2016-12-26T14:23:08.671Z,7.15
2016-12-26T14:24:19.389Z,7.14
2016-12-26T14:25:30.128Z,7.22
2016-12-26T14:26:40.833Z,7.19
2016-12-26T14:27:51.566Z,7.18
2016-12-26T14:29:02.295Z,7.14
2016-12-26T14:30:13.012Z,7.04
2016-12-26T14:31:23.779Z,7.26
2016-12-26T14:32:34.485Z,7.15
2016-12-26T14:33:45.204Z,7.1
2016-12-26T14:34:55.928Z,7.1
2016-12-26T14:36:06.666Z,7.05
2016-12-26T14:37:17.394Z,7.01
2016-12-26T14:38:28.132Z,7
2016-12-26T14:39:38.885Z,6.96
2016-12-26T14:40:49.628Z,6.93
2016-12-26T14:42:00.346Z,6.87
2016-12-26T14:43:11.073Z,6.82
2016-12-26T14:44:21.808Z,6.85
2016-12-26T14:45:32.562Z,6.85
2016-12-26T14:46:43.279Z,6.83
2016-12-26T14:47:53.995Z,6.8
2016-12-26T14:49:04.717Z,6.77
2016-12-26T14:50:15.448Z,6.78
2016-12-26T14:51:26.183Z,6.75
2016-12-26T14:52:36.934Z,6.75
2016-12-26T14:53:47.650Z,6.68
2016-12-26T14:54:58.395Z,6.65
2016-12-26T14:56:09.151Z,6.62
2016-12-26T14:57:19.865Z,6.62
2016-12-26T14:58:30.591Z,6.62
2016-12-26T14:59:41.304Z,6.59
2016-12-26T15:00:52.028Z,6.54
2016-12-26T15:02:02.773Z,6.49
2016-12-26T15:03:13.501Z,6.46
2016-12-26T15:04:24.236Z,6.53
2016-12-26T15:05:34.961Z,6.49
2016-12-26T15:06:45.672Z,6.47
2016-12-26T15:07:56.432Z,6.47
2016-12-26T15:09:07.156Z,6.49
2016-12-26T15:10:17.875Z,6.41
2016-12-26T15:11:28.599Z,6.44
2016-12-26T15:12:39.320Z,6.44
2016-12-26T15:13:50.040Z,6.44
2016-12-26T15:15:00.776Z,6.39
2016-12-26T15:16:11.504Z,6.36
2016-12-26T15:17:22.201Z,6.41
2016-12-26T15:18:32.970Z,6.31
2016-12-26T15:19:43.695Z,6.32
2016-12-26T15:20:54.434Z,6.26
2016-12-26T15:22:05.179Z,6.29
2016-12-26T15:23:15.907Z,6.28
2016-12-26T15:24:26.629Z,6.25
2016-12-26T15:25:37.349Z,6.28
2016-12-26T15:26:48.084Z,6.35
2016-12-26T15:27:59.121Z,6.31
2016-12-26T15:29:09.859Z,6.29
2016-12-26T15:30:20.581Z,6.29
2016-12-26T15:31:31.328Z,6.32
2016-12-26T15:32:42.050Z,6.25